Terminal Aerodrome Forecast
Issued by NWS

Home | Current Version | Previous Version | Text Only | Print | Product List | Glossary On
Versions: 1 2 3 4 5 6 7 8 9 10 11 12
000
FTUS42 KMLB 282300
TAFSUA
TAF
KSUA 282328Z 2900/2924 10010KT P6SM FEW040 BKN100
     FM290300 VRB03KT P6SM FEW030 SCT100
     FM291600 10009KT P6SM SCT040=

USA.gov is the U.S. government's official web portal to all federal, state and local government web resources and services.